BHS3262 MYGF-MYNN
Flight info
| Callsign | BHS3262 |
|---|---|
| Flight time | 0h 24m |
| Altitude | 15000 |
| Route | DCT ZFP BR65V ZQA DCT |
| Aircraft | B737/M-SDE2E3FGHIRWXY/LB1 |
Departure
| Time | 2026-05-06 05:43 |
|---|---|
| Airport | Grand Bahama International Airport (MYGF) |
Arrival
| Time | 2026-05-06 06:07 |
|---|---|
| Airport | Lynden Pindling International Airport (MYNN) |
| Time | Latitude | Longitude | Altitude | Speed | Heading |
|---|---|---|---|---|---|
| 2026-05-06 05:26 | 26.54865 | -78.69630 | 15 ft | 0 kts | 269° |
| 2026-05-06 05:38 | 26.54870 | -78.69644 | 15 ft | 6 kts | 312° |
| 2026-05-06 05:38 | 26.54903 | -78.69671 | 15 ft | 6 kts | 301° |
| 2026-05-06 05:39 | 26.54911 | -78.69744 | 15 ft | 12 kts | 271° |
| 2026-05-06 05:39 | 26.54913 | -78.69865 | 15 ft | 18 kts | 271° |
| 2026-05-06 05:39 | 26.54917 | -78.70003 | 15 ft | 16 kts | 271° |
| 2026-05-06 05:39 | 26.54920 | -78.70132 | 15 ft | 18 kts | 271° |
| 2026-05-06 05:40 | 26.54937 | -78.70255 | 15 ft | 9 kts | 313° |
| 2026-05-06 05:40 | 26.54965 | -78.70317 | 15 ft | 10 kts | 272° |
| 2026-05-06 05:40 | 26.54969 | -78.70429 | 15 ft | 17 kts | 271° |
| 2026-05-06 05:40 | 26.54974 | -78.70588 | 15 ft | 21 kts | 272° |
| 2026-05-06 05:41 | 26.54980 | -78.70745 | 15 ft | 19 kts | 272° |
| 2026-05-06 05:41 | 26.54984 | -78.70887 | 15 ft | 17 kts | 271° |
| 2026-05-06 05:41 | 26.54993 | -78.70982 | 15 ft | 9 kts | 299° |
| 2026-05-06 05:41 | 26.55045 | -78.71004 | 15 ft | 3 kts | 4° |
| 2026-05-06 05:42 | 26.55085 | -78.71001 | 15 ft | 11 kts | 4° |
| 2026-05-06 05:42 | 26.55127 | -78.71008 | 15 ft | 3 kts | 342° |
| 2026-05-06 05:42 | 26.55147 | -78.71000 | 15 ft | 3 kts | 48° |
| 2026-05-06 05:42 | 26.55179 | -78.70938 | 15 ft | 23 kts | 61° |
| 2026-05-06 05:43 | 26.55412 | -78.70472 | 15 ft | 115 kts | 61° |
| 2026-05-06 05:43 | 26.55902 | -78.69472 | 254 ft | 169 kts | 62° |
| 2026-05-06 05:43 | 26.56177 | -78.68150 | 1032 ft | 189 kts | 95° |
| 2026-05-06 05:43 | 26.55629 | -78.66801 | 1903 ft | 208 kts | 128° |
| 2026-05-06 05:44 | 26.54423 | -78.65773 | 2593 ft | 230 kts | 148° |
| 2026-05-06 05:44 | 26.53039 | -78.64747 | 3267 ft | 250 kts | 144° |
| 2026-05-06 05:44 | 26.51571 | -78.63602 | 3912 ft | 271 kts | 145° |
| 2026-05-06 05:44 | 26.49940 | -78.62362 | 4563 ft | 298 kts | 146° |
| 2026-05-06 05:45 | 26.48162 | -78.61015 | 5258 ft | 324 kts | 146° |
| 2026-05-06 05:45 | 26.46244 | -78.59564 | 5938 ft | 347 kts | 146° |
| 2026-05-06 05:45 | 26.44251 | -78.58058 | 6614 ft | 350 kts | 146° |
| 2026-05-06 05:45 | 26.42236 | -78.56537 | 7320 ft | 353 kts | 146° |
| 2026-05-06 05:46 | 26.40196 | -78.54998 | 8022 ft | 357 kts | 146° |
| 2026-05-06 05:46 | 26.38137 | -78.53446 | 8724 ft | 361 kts | 146° |
| 2026-05-06 05:46 | 26.36054 | -78.51876 | 9426 ft | 364 kts | 146° |
| 2026-05-06 05:46 | 26.33933 | -78.50279 | 10136 ft | 370 kts | 146° |
| 2026-05-06 05:47 | 26.31760 | -78.48642 | 10844 ft | 389 kts | 146° |
| 2026-05-06 05:47 | 26.29509 | -78.46949 | 11535 ft | 395 kts | 146° |
| 2026-05-06 05:47 | 26.27225 | -78.45231 | 12238 ft | 399 kts | 146° |
| 2026-05-06 05:47 | 26.24925 | -78.43501 | 12939 ft | 403 kts | 146° |
| 2026-05-06 05:48 | 26.22626 | -78.41774 | 13633 ft | 407 kts | 146° |
| 2026-05-06 05:48 | 26.20274 | -78.40007 | 14335 ft | 411 kts | 146° |
| 2026-05-06 05:48 | 26.17893 | -78.38219 | 14737 ft | 418 kts | 146° |
| 2026-05-06 05:48 | 26.15472 | -78.36404 | 14752 ft | 414 kts | 146° |
| 2026-05-06 05:49 | 26.13095 | -78.34621 | 14868 ft | 413 kts | 146° |
| 2026-05-06 05:49 | 26.10740 | -78.32787 | 14909 ft | 415 kts | 144° |
| 2026-05-06 05:49 | 26.08458 | -78.30882 | 14908 ft | 415 kts | 143° |
| 2026-05-06 05:49 | 26.06133 | -78.28939 | 14908 ft | 415 kts | 143° |
| 2026-05-06 05:50 | 26.03817 | -78.27028 | 14908 ft | 414 kts | 143° |
| 2026-05-06 05:50 | 26.01501 | -78.25121 | 14908 ft | 414 kts | 143° |
| 2026-05-06 05:50 | 25.99199 | -78.23226 | 14908 ft | 414 kts | 143° |
| 2026-05-06 05:50 | 25.96865 | -78.21307 | 14908 ft | 414 kts | 143° |
| 2026-05-06 05:51 | 25.94561 | -78.19414 | 14908 ft | 414 kts | 143° |
| 2026-05-06 05:51 | 25.92240 | -78.17509 | 14908 ft | 414 kts | 143° |
| 2026-05-06 05:51 | 25.89936 | -78.15619 | 14908 ft | 414 kts | 143° |
| 2026-05-06 05:51 | 25.87761 | -78.13836 | 14908 ft | 414 kts | 143° |
| 2026-05-06 05:52 | 25.85357 | -78.11866 | 14908 ft | 414 kts | 143° |
| 2026-05-06 05:52 | 25.83036 | -78.09965 | 14908 ft | 414 kts | 143° |
| 2026-05-06 05:52 | 25.80736 | -78.08082 | 14908 ft | 414 kts | 143° |
| 2026-05-06 05:52 | 25.78393 | -78.06165 | 14908 ft | 414 kts | 143° |
| 2026-05-06 05:53 | 25.76097 | -78.04288 | 14908 ft | 414 kts | 143° |
| 2026-05-06 05:53 | 25.73766 | -78.02383 | 14908 ft | 414 kts | 143° |
| 2026-05-06 05:53 | 25.71451 | -78.00492 | 14908 ft | 414 kts | 143° |
| 2026-05-06 05:53 | 25.69150 | -77.98614 | 14908 ft | 414 kts | 143° |
| 2026-05-06 05:54 | 25.66817 | -77.96710 | 14908 ft | 414 kts | 143° |
| 2026-05-06 05:54 | 25.64512 | -77.94830 | 14908 ft | 414 kts | 143° |
| 2026-05-06 05:54 | 25.62178 | -77.92928 | 14908 ft | 414 kts | 143° |
| 2026-05-06 05:54 | 25.59875 | -77.91051 | 14908 ft | 414 kts | 143° |
| 2026-05-06 05:55 | 25.57540 | -77.89143 | 14908 ft | 414 kts | 143° |
| 2026-05-06 05:55 | 25.55327 | -77.87154 | 14908 ft | 414 kts | 138° |
| 2026-05-06 05:55 | 25.53244 | -77.84941 | 14652 ft | 412 kts | 135° |
| 2026-05-06 05:55 | 25.51246 | -77.82774 | 14143 ft | 385 kts | 136° |
| 2026-05-06 05:56 | 25.49407 | -77.80814 | 13652 ft | 359 kts | 136° |
| 2026-05-06 05:56 | 25.47641 | -77.78939 | 13198 ft | 339 kts | 136° |
| 2026-05-06 05:56 | 25.45957 | -77.77146 | 12764 ft | 340 kts | 136° |
| 2026-05-06 05:56 | 25.44258 | -77.75339 | 12309 ft | 336 kts | 136° |
| 2026-05-06 05:57 | 25.42598 | -77.73576 | 11862 ft | 333 kts | 136° |
| 2026-05-06 05:57 | 25.40923 | -77.71798 | 11407 ft | 330 kts | 136° |
| 2026-05-06 05:57 | 25.39282 | -77.70056 | 10957 ft | 327 kts | 136° |
| 2026-05-06 05:57 | 25.37639 | -77.68313 | 10503 ft | 325 kts | 136° |
| 2026-05-06 05:58 | 25.36031 | -77.66608 | 10010 ft | 324 kts | 136° |
| 2026-05-06 05:58 | 25.34397 | -77.64875 | 9505 ft | 323 kts | 136° |
| 2026-05-06 05:58 | 25.32785 | -77.63168 | 9005 ft | 322 kts | 136° |
| 2026-05-06 05:58 | 25.31179 | -77.61467 | 8506 ft | 321 kts | 136° |
| 2026-05-06 05:59 | 25.29581 | -77.59775 | 8008 ft | 320 kts | 136° |
| 2026-05-06 05:59 | 25.27987 | -77.58087 | 7509 ft | 319 kts | 136° |
| 2026-05-06 05:59 | 25.26404 | -77.56413 | 7012 ft | 318 kts | 136° |
| 2026-05-06 05:59 | 25.24806 | -77.54723 | 6509 ft | 316 kts | 136° |
| 2026-05-06 06:00 | 25.23212 | -77.53037 | 6005 ft | 315 kts | 136° |
| 2026-05-06 06:00 | 25.21643 | -77.51379 | 5508 ft | 314 kts | 136° |
| 2026-05-06 06:00 | 25.20075 | -77.49722 | 5009 ft | 313 kts | 136° |
| 2026-05-06 06:00 | 25.18504 | -77.48064 | 4522 ft | 311 kts | 136° |
| 2026-05-06 06:01 | 25.16991 | -77.46467 | 4253 ft | 290 kts | 136° |
| 2026-05-06 06:01 | 25.15592 | -77.44991 | 4117 ft | 263 kts | 136° |
| 2026-05-06 06:01 | 25.14326 | -77.43656 | 3979 ft | 241 kts | 136° |
| 2026-05-06 06:01 | 25.13171 | -77.42438 | 3841 ft | 222 kts | 136° |
| 2026-05-06 06:02 | 25.12094 | -77.41303 | 3718 ft | 207 kts | 136° |
| 2026-05-06 06:02 | 25.11081 | -77.40234 | 3610 ft | 193 kts | 136° |
| 2026-05-06 06:02 | 25.10126 | -77.39229 | 3466 ft | 191 kts | 136° |
| 2026-05-06 06:02 | 25.09155 | -77.38206 | 3322 ft | 191 kts | 136° |
| 2026-05-06 06:03 | 25.08230 | -77.37231 | 3171 ft | 180 kts | 136° |
| 2026-05-06 06:03 | 25.07344 | -77.36298 | 3024 ft | 171 kts | 136° |
| 2026-05-06 06:03 | 25.06473 | -77.35425 | 2850 ft | 172 kts | 144° |
| 2026-05-06 06:03 | 25.05349 | -77.35073 | 2631 ft | 171 kts | 186° |
| 2026-05-06 06:04 | 25.04303 | -77.35642 | 2487 ft | 174 kts | 220° |
| 2026-05-06 06:04 | 25.03384 | -77.36567 | 2295 ft | 179 kts | 223° |
| 2026-05-06 06:04 | 25.02494 | -77.37470 | 2091 ft | 169 kts | 222° |
| 2026-05-06 06:04 | 25.01666 | -77.38309 | 1879 ft | 152 kts | 222° |
| 2026-05-06 06:05 | 25.00922 | -77.39065 | 1657 ft | 141 kts | 222° |
| 2026-05-06 06:05 | 25.00226 | -77.39784 | 1356 ft | 138 kts | 227° |
| 2026-05-06 06:05 | 24.99867 | -77.40720 | 1161 ft | 134 kts | 267° |
| 2026-05-06 06:05 | 25.00188 | -77.41672 | 1073 ft | 134 kts | 306° |
| 2026-05-06 06:06 | 25.00728 | -77.42476 | 1078 ft | 124 kts | 307° |
| 2026-05-06 06:06 | 25.01275 | -77.43219 | 718 ft | 123 kts | 311° |
| 2026-05-06 06:06 | 25.01875 | -77.43902 | 390 ft | 127 kts | 316° |
| 2026-05-06 06:06 | 25.02506 | -77.44591 | 225 ft | 125 kts | 314° |
| 2026-05-06 06:07 | 25.03118 | -77.45275 | 73 ft | 128 kts | 315° |
| 2026-05-06 06:07 | 25.03765 | -77.45991 | 33 ft | 128 kts | 314° |
| 2026-05-06 06:07 | 25.04283 | -77.46568 | 27 ft | 64 kts | 314° |
| 2026-05-06 06:07 | 25.04441 | -77.46725 | 28 ft | 17 kts | 349° |
| 2026-05-06 06:08 | 25.04522 | -77.46664 | 28 ft | 13 kts | 44° |
| 2026-05-06 06:08 | 25.04590 | -77.46646 | 28 ft | 8 kts | 313° |
| 2026-05-06 06:08 | 25.04637 | -77.46702 | 28 ft | 12 kts | 313° |
| 2026-05-06 06:08 | 25.04703 | -77.46732 | 28 ft | 10 kts | 20° |
| 2026-05-06 06:09 | 25.04755 | -77.46687 | 28 ft | 9 kts | 43° |
| 2026-05-06 06:09 | 25.04802 | -77.46650 | 28 ft | 7 kts | 12° |
| 2026-05-06 06:09 | 25.04831 | -77.46661 | 28 ft | 1 kts | 326° |
| 2026-05-06 06:09 | 25.04837 | -77.46664 | 28 ft | 0 kts | 325° |
| 2026-05-06 06:10 | 25.04840 | -77.46667 | 28 ft | 1 kts | 325° |
| 2026-05-06 06:10 | 25.04846 | -77.46671 | 28 ft | 0 kts | 325° |
| 2026-05-06 06:10 | 25.04848 | -77.46673 | 28 ft | 0 kts | 325° |